sensor_id;sensor_type;location;lat;lon;timestamp;P1;durP1;ratioP1;P2;durP2;ratioP2
53525;SDS011;40551;50.478;19.378;2023-07-13T00:02:11;17.30;;;9.00;;
53525;SDS011;40551;50.478;19.378;2023-07-13T00:04:43;13.60;;;9.00;;
53525;SDS011;40551;50.478;19.378;2023-07-13T00:07:16;12.30;;;9.60;;
53525;SDS011;40551;50.478;19.378;2023-07-13T00:09:51;14.70;;;9.20;;
53525;SDS011;40551;50.478;19.378;2023-07-13T00:12:27;10.90;;;8.30;;
53525;SDS011;40551;50.478;19.378;2023-07-13T00:15:04;12.20;;;8.50;;
53525;SDS011;40551;50.478;19.378;2023-07-13T00:17:44;12.90;;;9.60;;
53525;SDS011;40551;50.478;19.378;2023-07-13T00:20:20;12.50;;;8.80;;
53525;SDS011;40551;50.478;19.378;2023-07-13T00:22:55;13.20;;;9.10;;
53525;SDS011;40551;50.478;19.378;2023-07-13T00:25:30;11.50;;;8.80;;
53525;SDS011;40551;50.478;19.378;2023-07-13T00:28:05;10.70;;;8.40;;
53525;SDS011;40551;50.478;19.378;2023-07-13T00:30:40;10.10;;;8.50;;
53525;SDS011;40551;50.478;19.378;2023-07-13T00:33:14;12.10;;;9.30;;
53525;SDS011;40551;50.478;19.378;2023-07-13T00:35:48;10.10;;;8.50;;
53525;SDS011;40551;50.478;19.378;2023-07-13T00:38:21;11.80;;;8.70;;
53525;SDS011;40551;50.478;19.378;2023-07-13T00:40:56;11.20;;;8.90;;
53525;SDS011;40551;50.478;19.378;2023-07-13T00:43:30;13.50;;;9.90;;
53525;SDS011;40551;50.478;19.378;2023-07-13T00:46:13;11.20;;;8.90;;
53525;SDS011;40551;50.478;19.378;2023-07-13T00:48:50;10.90;;;8.50;;
53525;SDS011;40551;50.478;19.378;2023-07-13T00:51:28;10.20;;;8.60;;
53525;SDS011;40551;50.478;19.378;2023-07-13T00:54:08;15.70;;;9.50;;
53525;SDS011;40551;50.478;19.378;2023-07-13T00:56:44;12.00;;;9.00;;
53525;SDS011;40551;50.478;19.378;2023-07-13T00:59:22;11.60;;;9.00;;
53525;SDS011;40551;50.478;19.378;2023-07-13T01:01:56;12.50;;;10.30;;
53525;SDS011;40551;50.478;19.378;2023-07-13T01:04:32;14.00;;;9.80;;
53525;SDS011;40551;50.478;19.378;2023-07-13T01:07:07;12.20;;;9.80;;
53525;SDS011;40551;50.478;19.378;2023-07-13T01:09:42;12.30;;;9.20;;
53525;SDS011;40551;50.478;19.378;2023-07-13T01:12:16;12.80;;;10.90;;
53525;SDS011;40551;50.478;19.378;2023-07-13T01:14:58;16.40;;;13.80;;
53525;SDS011;40551;50.478;19.378;2023-07-13T01:17:33;13.60;;;12.20;;
53525;SDS011;40551;50.478;19.378;2023-07-13T01:20:11;11.90;;;10.70;;
53525;SDS011;40551;50.478;19.378;2023-07-13T01:22:45;15.20;;;11.40;;
53525;SDS011;40551;50.478;19.378;2023-07-13T01:25:20;13.50;;;12.20;;
53525;SDS011;40551;50.478;19.378;2023-07-13T01:27:54;14.10;;;10.70;;
53525;SDS011;40551;50.478;19.378;2023-07-13T01:30:28;11.70;;;10.50;;
53525;SDS011;40551;50.478;19.378;2023-07-13T01:33:06;12.30;;;10.50;;
53525;SDS011;40551;50.478;19.378;2023-07-13T01:35:41;13.60;;;10.10;;
53525;SDS011;40551;50.478;19.378;2023-07-13T01:38:19;12.60;;;11.30;;
53525;SDS011;40551;50.478;19.378;2023-07-13T01:40:54;12.00;;;10.50;;
53525;SDS011;40551;50.478;19.378;2023-07-13T01:43:28;12.00;;;10.80;;
53525;SDS011;40551;50.478;19.378;2023-07-13T01:46:02;11.90;;;10.50;;
53525;SDS011;40551;50.478;19.378;2023-07-13T01:48:52;11.70;;;10.50;;
53525;SDS011;40551;50.478;19.378;2023-07-13T01:51:26;12.30;;;10.40;;
53525;SDS011;40551;50.478;19.378;2023-07-13T01:54:00;12.50;;;11.10;;
53525;SDS011;40551;50.478;19.378;2023-07-13T01:56:33;12.90;;;11.10;;
53525;SDS011;40551;50.478;19.378;2023-07-13T01:59:08;14.70;;;11.40;;
53525;SDS011;40551;50.478;19.378;2023-07-13T02:01:41;13.20;;;11.10;;
53525;SDS011;40551;50.478;19.378;2023-07-13T02:04:15;13.90;;;12.00;;
53525;SDS011;40551;50.478;19.378;2023-07-13T02:06:49;14.00;;;11.30;;
53525;SDS011;40551;50.478;19.378;2023-07-13T02:09:24;11.40;;;10.20;;
53525;SDS011;40551;50.478;19.378;2023-07-13T02:11:58;12.20;;;10.40;;
53525;SDS011;40551;50.478;19.378;2023-07-13T02:14:35;13.00;;;11.70;;
53525;SDS011;40551;50.478;19.378;2023-07-13T02:17:09;12.50;;;11.10;;
53525;SDS011;40551;50.478;19.378;2023-07-13T02:19:43;13.90;;;12.40;;
53525;SDS011;40551;50.478;19.378;2023-07-13T02:22:17;14.40;;;11.90;;
53525;SDS011;40551;50.478;19.378;2023-07-13T02:24:51;11.70;;;10.50;;
53525;SDS011;40551;50.478;19.378;2023-07-13T02:27:28;15.70;;;11.30;;
53525;SDS011;40551;50.478;19.378;2023-07-13T02:30:06;12.30;;;11.00;;
53525;SDS011;40551;50.478;19.378;2023-07-13T02:32:42;12.60;;;11.30;;
53525;SDS011;40551;50.478;19.378;2023-07-13T02:35:16;13.70;;;11.50;;
53525;SDS011;40551;50.478;19.378;2023-07-13T02:37:49;13.50;;;11.60;;
53525;SDS011;40551;50.478;19.378;2023-07-13T02:40:24;12.10;;;10.70;;
53525;SDS011;40551;50.478;19.378;2023-07-13T02:42:57;11.80;;;10.60;;
53525;SDS011;40551;50.478;19.378;2023-07-13T02:45:33;12.80;;;11.50;;
53525;SDS011;40551;50.478;19.378;2023-07-13T02:48:06;15.10;;;11.90;;
53525;SDS011;40551;50.478;19.378;2023-07-13T02:50:40;13.50;;;11.70;;
53525;SDS011;40551;50.478;19.378;2023-07-13T02:53:14;12.40;;;10.30;;
53525;SDS011;40551;50.478;19.378;2023-07-13T02:55:50;11.50;;;10.20;;
53525;SDS011;40551;50.478;19.378;2023-07-13T02:58:23;13.90;;;12.50;;
53525;SDS011;40551;50.478;19.378;2023-07-13T03:00:58;13.90;;;12.50;;
53525;SDS011;40551;50.478;19.378;2023-07-13T03:03:37;13.30;;;11.80;;
53525;SDS011;40551;50.478;19.378;2023-07-13T03:06:13;15.90;;;12.90;;
53525;SDS011;40551;50.478;19.378;2023-07-13T03:08:53;14.50;;;12.80;;
53525;SDS011;40551;50.478;19.378;2023-07-13T03:11:26;14.10;;;12.50;;
53525;SDS011;40551;50.478;19.378;2023-07-13T03:14:15;13.90;;;11.60;;
53525;SDS011;40551;50.478;19.378;2023-07-13T03:16:50;14.10;;;12.50;;
53525;SDS011;40551;50.478;19.378;2023-07-13T03:19:27;13.20;;;11.80;;
53525;SDS011;40551;50.478;19.378;2023-07-13T03:22:03;15.30;;;12.40;;
53525;SDS011;40551;50.478;19.378;2023-07-13T03:24:41;13.40;;;11.80;;
53525;SDS011;40551;50.478;19.378;2023-07-13T03:27:15;14.10;;;12.20;;
53525;SDS011;40551;50.478;19.378;2023-07-13T03:29:50;15.90;;;13.90;;
53525;SDS011;40551;50.478;19.378;2023-07-13T03:32:25;16.90;;;12.90;;
53525;SDS011;40551;50.478;19.378;2023-07-13T03:34:58;14.50;;;13.00;;
53525;SDS011;40551;50.478;19.378;2023-07-13T03:37:33;15.40;;;13.80;;
53525;SDS011;40551;50.478;19.378;2023-07-13T03:40:16;15.30;;;13.60;;
53525;SDS011;40551;50.478;19.378;2023-07-13T03:42:49;15.80;;;13.80;;
53525;SDS011;40551;50.478;19.378;2023-07-13T03:45:23;15.80;;;14.10;;
53525;SDS011;40551;50.478;19.378;2023-07-13T03:48:01;14.60;;;13.10;;
53525;SDS011;40551;50.478;19.378;2023-07-13T03:50:35;16.10;;;14.40;;
53525;SDS011;40551;50.478;19.378;2023-07-13T03:53:09;14.40;;;12.80;;
53525;SDS011;40551;50.478;19.378;2023-07-13T03:55:43;14.50;;;12.30;;
53525;SDS011;40551;50.478;19.378;2023-07-13T04:01:15;15.00;;;13.30;;
53525;SDS011;40551;50.478;19.378;2023-07-13T04:03:50;14.20;;;12.30;;
53525;SDS011;40551;50.478;19.378;2023-07-13T04:06:27;14.40;;;12.00;;
53525;SDS011;40551;50.478;19.378;2023-07-13T04:09:02;14.10;;;12.70;;
53525;SDS011;40551;50.478;19.378;2023-07-13T04:11:35;16.70;;;15.00;;
53525;SDS011;40551;50.478;19.378;2023-07-13T04:14:09;17.50;;;13.30;;
53525;SDS011;40551;50.478;19.378;2023-07-13T04:16:43;14.40;;;13.00;;
53525;SDS011;40551;50.478;19.378;2023-07-13T04:19:18;13.00;;;11.60;;
53525;SDS011;40551;50.478;19.378;2023-07-13T04:21:54;13.90;;;12.20;;
53525;SDS011;40551;50.478;19.378;2023-07-13T04:24:28;14.90;;;12.00;;
53525;SDS011;40551;50.478;19.378;2023-07-13T04:27:01;12.80;;;11.50;;
53525;SDS011;40551;50.478;19.378;2023-07-13T04:29:34;14.90;;;11.70;;
53525;SDS011;40551;50.478;19.378;2023-07-13T04:32:08;12.70;;;11.10;;
53525;SDS011;40551;50.478;19.378;2023-07-13T04:34:42;14.40;;;11.70;;
53525;SDS011;40551;50.478;19.378;2023-07-13T04:37:15;13.90;;;11.40;;
53525;SDS011;40551;50.478;19.378;2023-07-13T04:39:49;17.40;;;13.10;;
53525;SDS011;40551;50.478;19.378;2023-07-13T04:42:22;15.10;;;11.90;;
53525;SDS011;40551;50.478;19.378;2023-07-13T04:44:56;13.40;;;11.60;;
53525;SDS011;40551;50.478;19.378;2023-07-13T04:47:32;12.90;;;11.40;;
53525;SDS011;40551;50.478;19.378;2023-07-13T04:50:07;14.00;;;12.30;;
53525;SDS011;40551;50.478;19.378;2023-07-13T04:52:44;13.60;;;11.70;;
53525;SDS011;40551;50.478;19.378;2023-07-13T04:55:19;13.50;;;12.00;;
53525;SDS011;40551;50.478;19.378;2023-07-13T04:57:53;14.00;;;12.30;;
53525;SDS011;40551;50.478;19.378;2023-07-13T05:00:29;14.20;;;12.70;;
53525;SDS011;40551;50.478;19.378;2023-07-13T05:03:03;13.40;;;12.00;;
53525;SDS011;40551;50.478;19.378;2023-07-13T05:05:38;14.90;;;12.10;;
53525;SDS011;40551;50.478;19.378;2023-07-13T05:08:11;15.00;;;11.70;;
53525;SDS011;40551;50.478;19.378;2023-07-13T05:10:45;13.70;;;11.60;;
53525;SDS011;40551;50.478;19.378;2023-07-13T05:13:19;13.50;;;11.50;;
53525;SDS011;40551;50.478;19.378;2023-07-13T05:15:59;13.50;;;11.50;;
53525;SDS011;40551;50.478;19.378;2023-07-13T05:18:35;13.60;;;10.90;;
53525;SDS011;40551;50.478;19.378;2023-07-13T05:21:12;15.90;;;11.70;;
53525;SDS011;40551;50.478;19.378;2023-07-13T05:23:45;14.50;;;11.20;;
53525;SDS011;40551;50.478;19.378;2023-07-13T05:26:18;11.40;;;9.80;;
53525;SDS011;40551;50.478;19.378;2023-07-13T05:28:52;14.90;;;10.30;;
53525;SDS011;40551;50.478;19.378;2023-07-13T05:31:26;15.30;;;10.20;;
53525;SDS011;40551;50.478;19.378;2023-07-13T05:34:00;13.50;;;10.10;;
53525;SDS011;40551;50.478;19.378;2023-07-13T05:36:32;15.10;;;9.50;;
53525;SDS011;40551;50.478;19.378;2023-07-13T05:39:05;15.50;;;9.00;;
53525;SDS011;40551;50.478;19.378;2023-07-13T05:41:39;10.90;;;8.00;;
53525;SDS011;40551;50.478;19.378;2023-07-13T05:44:12;11.80;;;8.50;;
53525;SDS011;40551;50.478;19.378;2023-07-13T05:46:45;11.40;;;8.20;;
53525;SDS011;40551;50.478;19.378;2023-07-13T05:49:20;13.50;;;8.30;;
53525;SDS011;40551;50.478;19.378;2023-07-13T05:51:53;9.60;;;7.30;;
53525;SDS011;40551;50.478;19.378;2023-07-13T05:54:31;11.30;;;7.60;;
53525;SDS011;40551;50.478;19.378;2023-07-13T05:57:08;11.10;;;7.10;;
53525;SDS011;40551;50.478;19.378;2023-07-13T05:59:41;10.30;;;7.20;;
53525;SDS011;40551;50.478;19.378;2023-07-13T06:02:14;9.70;;;6.40;;
53525;SDS011;40551;50.478;19.378;2023-07-13T06:04:47;9.60;;;5.90;;
53525;SDS011;40551;50.478;19.378;2023-07-13T06:07:22;13.00;;;7.60;;
53525;SDS011;40551;50.478;19.378;2023-07-13T06:09:56;11.80;;;7.00;;
53525;SDS011;40551;50.478;19.378;2023-07-13T06:12:31;11.50;;;7.20;;
53525;SDS011;40551;50.478;19.378;2023-07-13T06:15:05;12.10;;;6.70;;
53525;SDS011;40551;50.478;19.378;2023-07-13T06:17:41;11.80;;;7.00;;
53525;SDS011;40551;50.478;19.378;2023-07-13T06:20:15;11.20;;;7.20;;
53525;SDS011;40551;50.478;19.378;2023-07-13T06:22:49;10.40;;;7.10;;
53525;SDS011;40551;50.478;19.378;2023-07-13T06:25:23;11.10;;;6.60;;
53525;SDS011;40551;50.478;19.378;2023-07-13T06:27:57;10.90;;;6.60;;
53525;SDS011;40551;50.478;19.378;2023-07-13T06:30:32;11.80;;;7.70;;
53525;SDS011;40551;50.478;19.378;2023-07-13T06:33:05;12.50;;;7.60;;
53525;SDS011;40551;50.478;19.378;2023-07-13T06:35:39;11.10;;;6.70;;
53525;SDS011;40551;50.478;19.378;2023-07-13T06:38:13;14.30;;;7.20;;
53525;SDS011;40551;50.478;19.378;2023-07-13T06:40:46;13.10;;;7.40;;
53525;SDS011;40551;50.478;19.378;2023-07-13T06:43:22;10.50;;;6.50;;
53525;SDS011;40551;50.478;19.378;2023-07-13T06:45:56;9.20;;;6.40;;
53525;SDS011;40551;50.478;19.378;2023-07-13T06:48:29;9.30;;;6.20;;
53525;SDS011;40551;50.478;19.378;2023-07-13T06:51:03;9.40;;;5.40;;
53525;SDS011;40551;50.478;19.378;2023-07-13T06:53:36;9.00;;;5.10;;
53525;SDS011;40551;50.478;19.378;2023-07-13T06:56:09;8.00;;;5.10;;
53525;SDS011;40551;50.478;19.378;2023-07-13T06:58:42;11.10;;;5.70;;
53525;SDS011;40551;50.478;19.378;2023-07-13T07:01:15;13.40;;;5.30;;
53525;SDS011;40551;50.478;19.378;2023-07-13T07:03:48;10.60;;;6.20;;
53525;SDS011;40551;50.478;19.378;2023-07-13T07:06:22;16.40;;;6.40;;
53525;SDS011;40551;50.478;19.378;2023-07-13T07:08:57;8.80;;;5.90;;
53525;SDS011;40551;50.478;19.378;2023-07-13T07:11:30;7.70;;;5.20;;
53525;SDS011;40551;50.478;19.378;2023-07-13T07:14:02;9.60;;;5.40;;
53525;SDS011;40551;50.478;19.378;2023-07-13T07:16:36;8.10;;;5.80;;
53525;SDS011;40551;50.478;19.378;2023-07-13T07:19:08;8.60;;;4.70;;
53525;SDS011;40551;50.478;19.378;2023-07-13T07:21:41;9.80;;;4.30;;
53525;SDS011;40551;50.478;19.378;2023-07-13T07:24:14;7.70;;;4.40;;
53525;SDS011;40551;50.478;19.378;2023-07-13T07:26:51;10.80;;;4.80;;
53525;SDS011;40551;50.478;19.378;2023-07-13T07:29:28;11.60;;;5.30;;
53525;SDS011;40551;50.478;19.378;2023-07-13T07:32:06;8.00;;;4.70;;
53525;SDS011;40551;50.478;19.378;2023-07-13T07:35:01;9.60;;;4.20;;
53525;SDS011;40551;50.478;19.378;2023-07-13T07:37:35;8.70;;;4.20;;
53525;SDS011;40551;50.478;19.378;2023-07-13T07:40:11;8.00;;;4.30;;
53525;SDS011;40551;50.478;19.378;2023-07-13T07:42:47;8.70;;;4.30;;
53525;SDS011;40551;50.478;19.378;2023-07-13T07:45:20;10.10;;;4.40;;
53525;SDS011;40551;50.478;19.378;2023-07-13T07:47:54;10.40;;;4.20;;
53525;SDS011;40551;50.478;19.378;2023-07-13T07:50:28;10.10;;;3.90;;
53525;SDS011;40551;50.478;19.378;2023-07-13T07:53:03;10.20;;;4.10;;
53525;SDS011;40551;50.478;19.378;2023-07-13T07:55:39;8.10;;;4.60;;
53525;SDS011;40551;50.478;19.378;2023-07-13T07:58:15;7.70;;;4.10;;
53525;SDS011;40551;50.478;19.378;2023-07-13T08:00:51;16.00;;;4.00;;
53525;SDS011;40551;50.478;19.378;2023-07-13T08:03:28;9.20;;;4.10;;
53525;SDS011;40551;50.478;19.378;2023-07-13T08:06:20;11.40;;;4.70;;
53525;SDS011;40551;50.478;19.378;2023-07-13T08:09:13;7.70;;;3.90;;
53525;SDS011;40551;50.478;19.378;2023-07-13T08:11:46;14.00;;;4.30;;
53525;SDS011;40551;50.478;19.378;2023-07-13T08:14:24;9.10;;;4.50;;
53525;SDS011;40551;50.478;19.378;2023-07-13T08:17:16;7.70;;;4.30;;
53525;SDS011;40551;50.478;19.378;2023-07-13T08:19:50;9.40;;;4.10;;
53525;SDS011;40551;50.478;19.378;2023-07-13T08:22:23;8.20;;;3.70;;
53525;SDS011;40551;50.478;19.378;2023-07-13T08:24:58;6.90;;;3.80;;
53525;SDS011;40551;50.478;19.378;2023-07-13T08:27:32;8.50;;;4.10;;
53525;SDS011;40551;50.478;19.378;2023-07-13T08:30:09;6.90;;;3.50;;
53525;SDS011;40551;50.478;19.378;2023-07-13T08:32:44;7.80;;;4.10;;
53525;SDS011;40551;50.478;19.378;2023-07-13T08:35:17;11.00;;;4.10;;
53525;SDS011;40551;50.478;19.378;2023-07-13T08:37:52;9.10;;;4.40;;
53525;SDS011;40551;50.478;19.378;2023-07-13T08:40:26;10.10;;;4.10;;
53525;SDS011;40551;50.478;19.378;2023-07-13T08:43:00;8.90;;;4.60;;
53525;SDS011;40551;50.478;19.378;2023-07-13T08:45:38;9.80;;;4.40;;
53525;SDS011;40551;50.478;19.378;2023-07-13T08:48:16;7.50;;;4.20;;
53525;SDS011;40551;50.478;19.378;2023-07-13T08:50:56;8.20;;;4.60;;
53525;SDS011;40551;50.478;19.378;2023-07-13T08:53:34;8.60;;;4.60;;
53525;SDS011;40551;50.478;19.378;2023-07-13T08:56:13;9.40;;;4.80;;
53525;SDS011;40551;50.478;19.378;2023-07-13T08:58:51;8.30;;;4.90;;
53525;SDS011;40551;50.478;19.378;2023-07-13T09:01:45;12.10;;;6.30;;
53525;SDS011;40551;50.478;19.378;2023-07-13T09:04:32;9.00;;;5.60;;
53525;SDS011;40551;50.478;19.378;2023-07-13T09:07:14;11.10;;;5.10;;
53525;SDS011;40551;50.478;19.378;2023-07-13T09:10:02;9.50;;;5.40;;
53525;SDS011;40551;50.478;19.378;2023-07-13T09:12:48;10.90;;;6.10;;
53525;SDS011;40551;50.478;19.378;2023-07-13T09:15:31;7.80;;;5.10;;
53525;SDS011;40551;50.478;19.378;2023-07-13T09:18:08;12.10;;;5.00;;
53525;SDS011;40551;50.478;19.378;2023-07-13T09:20:44;11.40;;;5.50;;
53525;SDS011;40551;50.478;19.378;2023-07-13T09:23:21;10.90;;;5.40;;
53525;SDS011;40551;50.478;19.378;2023-07-13T09:26:04;15.90;;;5.60;;
53525;SDS011;40551;50.478;19.378;2023-07-13T09:28:43;8.80;;;5.00;;
53525;SDS011;40551;50.478;19.378;2023-07-13T09:31:20;10.70;;;5.60;;
53525;SDS011;40551;50.478;19.378;2023-07-13T09:34:03;15.10;;;6.20;;
53525;SDS011;40551;50.478;19.378;2023-07-13T09:36:40;8.70;;;4.80;;
53525;SDS011;40551;50.478;19.378;2023-07-13T09:39:15;14.30;;;5.40;;
53525;SDS011;40551;50.478;19.378;2023-07-13T09:41:57;8.20;;;5.60;;
53525;SDS011;40551;50.478;19.378;2023-07-13T09:44:50;11.00;;;5.30;;
53525;SDS011;40551;50.478;19.378;2023-07-13T09:47:25;11.10;;;4.90;;
53525;SDS011;40551;50.478;19.378;2023-07-13T09:50:00;10.90;;;5.30;;
53525;SDS011;40551;50.478;19.378;2023-07-13T09:52:42;9.50;;;5.20;;
53525;SDS011;40551;50.478;19.378;2023-07-13T09:58:08;9.90;;;5.30;;
53525;SDS011;40551;50.478;19.378;2023-07-13T10:00:56;13.00;;;5.40;;
53525;SDS011;40551;50.478;19.378;2023-07-13T10:03:32;11.40;;;5.40;;
53525;SDS011;40551;50.478;19.378;2023-07-13T10:06:12;9.30;;;5.40;;
53525;SDS011;40551;50.478;19.378;2023-07-13T10:08:47;9.40;;;6.20;;
53525;SDS011;40551;50.478;19.378;2023-07-13T10:11:22;10.00;;;5.40;;
53525;SDS011;40551;50.478;19.378;2023-07-13T10:13:59;10.10;;;5.90;;
53525;SDS011;40551;50.478;19.378;2023-07-13T10:16:35;12.60;;;5.90;;
53525;SDS011;40551;50.478;19.378;2023-07-13T10:19:13;9.70;;;5.20;;
53525;SDS011;40551;50.478;19.378;2023-07-13T10:21:53;8.50;;;4.70;;
53525;SDS011;40551;50.478;19.378;2023-07-13T10:24:27;7.00;;;4.10;;
53525;SDS011;40551;50.478;19.378;2023-07-13T10:27:09;6.30;;;3.60;;
53525;SDS011;40551;50.478;19.378;2023-07-13T10:29:48;5.80;;;3.20;;
53525;SDS011;40551;50.478;19.378;2023-07-13T10:32:30;7.70;;;3.30;;
53525;SDS011;40551;50.478;19.378;2023-07-13T10:35:08;7.00;;;2.70;;
53525;SDS011;40551;50.478;19.378;2023-07-13T10:37:44;8.50;;;2.50;;
53525;SDS011;40551;50.478;19.378;2023-07-13T10:40:22;5.90;;;2.90;;
53525;SDS011;40551;50.478;19.378;2023-07-13T10:43:09;5.20;;;2.60;;
53525;SDS011;40551;50.478;19.378;2023-07-13T10:45:49;6.90;;;3.00;;
53525;SDS011;40551;50.478;19.378;2023-07-13T10:48:24;8.40;;;3.10;;
53525;SDS011;40551;50.478;19.378;2023-07-13T10:50:59;6.00;;;2.80;;
53525;SDS011;40551;50.478;19.378;2023-07-13T10:53:35;7.20;;;3.00;;
53525;SDS011;40551;50.478;19.378;2023-07-13T10:56:19;8.10;;;3.20;;
53525;SDS011;40551;50.478;19.378;2023-07-13T10:59:06;10.40;;;3.80;;
53525;SDS011;40551;50.478;19.378;2023-07-13T11:01:52;7.40;;;3.40;;
53525;SDS011;40551;50.478;19.378;2023-07-13T11:04:29;7.10;;;3.40;;
53525;SDS011;40551;50.478;19.378;2023-07-13T11:07:25;11.50;;;3.30;;
53525;SDS011;40551;50.478;19.378;2023-07-13T11:09:59;8.90;;;3.50;;
53525;SDS011;40551;50.478;19.378;2023-07-13T11:15:30;8.80;;;4.30;;
53525;SDS011;40551;50.478;19.378;2023-07-13T11:18:23;10.60;;;4.60;;
53525;SDS011;40551;50.478;19.378;2023-07-13T11:24:04;7.80;;;4.20;;
53525;SDS011;40551;50.478;19.378;2023-07-13T11:26:52;10.80;;;4.10;;
53525;SDS011;40551;50.478;19.378;2023-07-13T11:29:32;9.30;;;3.60;;
53525;SDS011;40551;50.478;19.378;2023-07-13T11:34:56;11.00;;;3.80;;
53525;SDS011;40551;50.478;19.378;2023-07-13T11:37:32;7.10;;;3.60;;
53525;SDS011;40551;50.478;19.378;2023-07-13T11:40:11;12.50;;;3.70;;
53525;SDS011;40551;50.478;19.378;2023-07-13T11:42:49;9.00;;;3.90;;
53525;SDS011;40551;50.478;19.378;2023-07-13T11:45:24;7.00;;;3.60;;
53525;SDS011;40551;50.478;19.378;2023-07-13T11:48:25;8.80;;;4.40;;
53525;SDS011;40551;50.478;19.378;2023-07-13T11:51:02;7.30;;;3.80;;
53525;SDS011;40551;50.478;19.378;2023-07-13T11:53:38;6.70;;;3.80;;
53525;SDS011;40551;50.478;19.378;2023-07-13T11:56:15;10.00;;;4.20;;
53525;SDS011;40551;50.478;19.378;2023-07-13T11:58:53;7.80;;;3.80;;
53525;SDS011;40551;50.478;19.378;2023-07-13T12:01:31;7.50;;;3.60;;
53525;SDS011;40551;50.478;19.378;2023-07-13T12:04:08;6.10;;;3.10;;
53525;SDS011;40551;50.478;19.378;2023-07-13T12:07:03;9.50;;;4.10;;
53525;SDS011;40551;50.478;19.378;2023-07-13T12:09:38;8.10;;;4.00;;
53525;SDS011;40551;50.478;19.378;2023-07-13T12:12:13;8.10;;;3.60;;
53525;SDS011;40551;50.478;19.378;2023-07-13T12:14:54;9.90;;;4.20;;
53525;SDS011;40551;50.478;19.378;2023-07-13T12:17:28;9.10;;;3.90;;
53525;SDS011;40551;50.478;19.378;2023-07-13T12:20:11;9.20;;;4.30;;
53525;SDS011;40551;50.478;19.378;2023-07-13T12:23:10;7.90;;;4.10;;
53525;SDS011;40551;50.478;19.378;2023-07-13T12:25:55;8.60;;;4.10;;
53525;SDS011;40551;50.478;19.378;2023-07-13T12:28:34;9.00;;;4.10;;
53525;SDS011;40551;50.478;19.378;2023-07-13T12:31:24;7.00;;;4.10;;
53525;SDS011;40551;50.478;19.378;2023-07-13T12:34:02;8.20;;;4.00;;
53525;SDS011;40551;50.478;19.378;2023-07-13T12:36:39;7.70;;;4.10;;
53525;SDS011;40551;50.478;19.378;2023-07-13T12:39:20;7.60;;;4.30;;
53525;SDS011;40551;50.478;19.378;2023-07-13T12:42:09;6.60;;;3.60;;
53525;SDS011;40551;50.478;19.378;2023-07-13T12:44:51;9.50;;;4.20;;
53525;SDS011;40551;50.478;19.378;2023-07-13T12:47:30;7.80;;;4.30;;
53525;SDS011;40551;50.478;19.378;2023-07-13T12:50:14;8.50;;;3.90;;
53525;SDS011;40551;50.478;19.378;2023-07-13T12:52:51;8.20;;;4.50;;
53525;SDS011;40551;50.478;19.378;2023-07-13T12:55:39;7.60;;;4.00;;
53525;SDS011;40551;50.478;19.378;2023-07-13T12:58:19;8.30;;;4.30;;
53525;SDS011;40551;50.478;19.378;2023-07-13T13:00:58;9.40;;;4.20;;
53525;SDS011;40551;50.478;19.378;2023-07-13T13:03:34;6.40;;;3.60;;
53525;SDS011;40551;50.478;19.378;2023-07-13T13:06:20;8.20;;;4.60;;
53525;SDS011;40551;50.478;19.378;2023-07-13T13:08:57;8.00;;;4.10;;
53525;SDS011;40551;50.478;19.378;2023-07-13T13:11:32;8.20;;;4.00;;
53525;SDS011;40551;50.478;19.378;2023-07-13T13:14:05;8.90;;;4.10;;
53525;SDS011;40551;50.478;19.378;2023-07-13T13:16:43;7.80;;;4.00;;
53525;SDS011;40551;50.478;19.378;2023-07-13T13:19:22;7.80;;;4.00;;
53525;SDS011;40551;50.478;19.378;2023-07-13T13:21:56;8.10;;;4.00;;
53525;SDS011;40551;50.478;19.378;2023-07-13T13:24:30;7.10;;;4.30;;
53525;SDS011;40551;50.478;19.378;2023-07-13T13:27:05;8.20;;;4.10;;
53525;SDS011;40551;50.478;19.378;2023-07-13T13:29:46;7.10;;;3.90;;
53525;SDS011;40551;50.478;19.378;2023-07-13T13:32:22;7.30;;;4.00;;
53525;SDS011;40551;50.478;19.378;2023-07-13T13:34:55;7.50;;;4.30;;
53525;SDS011;40551;50.478;19.378;2023-07-13T13:37:30;12.10;;;4.40;;
53525;SDS011;40551;50.478;19.378;2023-07-13T13:40:04;9.20;;;4.10;;
53525;SDS011;40551;50.478;19.378;2023-07-13T13:42:47;10.30;;;4.40;;
53525;SDS011;40551;50.478;19.378;2023-07-13T13:45:21;7.70;;;4.40;;
53525;SDS011;40551;50.478;19.378;2023-07-13T13:47:54;12.20;;;5.10;;
53525;SDS011;40551;50.478;19.378;2023-07-13T13:50:29;7.60;;;4.20;;
53525;SDS011;40551;50.478;19.378;2023-07-13T13:53:03;7.60;;;4.40;;
53525;SDS011;40551;50.478;19.378;2023-07-13T13:55:37;7.80;;;4.00;;
53525;SDS011;40551;50.478;19.378;2023-07-13T13:58:13;8.40;;;4.40;;
53525;SDS011;40551;50.478;19.378;2023-07-13T14:00:47;8.00;;;4.50;;
53525;SDS011;40551;50.478;19.378;2023-07-13T14:03:20;8.50;;;4.80;;
53525;SDS011;40551;50.478;19.378;2023-07-13T14:05:54;9.50;;;4.60;;
53525;SDS011;40551;50.478;19.378;2023-07-13T14:08:28;8.00;;;4.60;;
53525;SDS011;40551;50.478;19.378;2023-07-13T14:11:01;12.80;;;5.20;;
53525;SDS011;40551;50.478;19.378;2023-07-13T14:13:36;10.60;;;4.80;;
53525;SDS011;40551;50.478;19.378;2023-07-13T14:16:12;9.40;;;4.40;;
53525;SDS011;40551;50.478;19.378;2023-07-13T14:18:49;8.20;;;4.10;;
53525;SDS011;40551;50.478;19.378;2023-07-13T14:21:22;7.50;;;3.90;;
53525;SDS011;40551;50.478;19.378;2023-07-13T14:23:55;6.80;;;3.70;;
53525;SDS011;40551;50.478;19.378;2023-07-13T14:26:29;7.80;;;3.70;;
53525;SDS011;40551;50.478;19.378;2023-07-13T14:29:12;6.90;;;3.60;;
53525;SDS011;40551;50.478;19.378;2023-07-13T14:31:52;8.10;;;4.40;;
53525;SDS011;40551;50.478;19.378;2023-07-13T14:34:26;6.20;;;3.70;;
53525;SDS011;40551;50.478;19.378;2023-07-13T14:36:59;6.70;;;3.90;;
53525;SDS011;40551;50.478;19.378;2023-07-13T14:39:34;8.50;;;4.00;;
53525;SDS011;40551;50.478;19.378;2023-07-13T14:42:09;7.80;;;3.90;;
53525;SDS011;40551;50.478;19.378;2023-07-13T14:44:44;6.70;;;3.70;;
53525;SDS011;40551;50.478;19.378;2023-07-13T14:47:17;7.30;;;3.90;;
53525;SDS011;40551;50.478;19.378;2023-07-13T14:49:50;7.60;;;3.90;;
53525;SDS011;40551;50.478;19.378;2023-07-13T14:52:23;6.80;;;3.50;;
53525;SDS011;40551;50.478;19.378;2023-07-13T14:54:57;9.30;;;4.00;;
53525;SDS011;40551;50.478;19.378;2023-07-13T14:57:31;7.00;;;3.70;;
53525;SDS011;40551;50.478;19.378;2023-07-13T15:00:08;7.80;;;3.90;;
53525;SDS011;40551;50.478;19.378;2023-07-13T15:02:48;7.40;;;3.70;;
53525;SDS011;40551;50.478;19.378;2023-07-13T15:05:27;7.10;;;3.70;;
53525;SDS011;40551;50.478;19.378;2023-07-13T15:08:03;6.10;;;3.40;;
53525;SDS011;40551;50.478;19.378;2023-07-13T15:10:38;7.30;;;3.80;;
53525;SDS011;40551;50.478;19.378;2023-07-13T15:13:15;7.90;;;3.60;;
53525;SDS011;40551;50.478;19.378;2023-07-13T15:15:51;7.10;;;3.30;;
53525;SDS011;40551;50.478;19.378;2023-07-13T15:18:25;6.60;;;3.30;;
53525;SDS011;40551;50.478;19.378;2023-07-13T15:20:59;6.60;;;3.30;;
53525;SDS011;40551;50.478;19.378;2023-07-13T15:23:34;9.00;;;3.20;;
53525;SDS011;40551;50.478;19.378;2023-07-13T15:26:07;8.00;;;3.60;;
53525;SDS011;40551;50.478;19.378;2023-07-13T15:28:44;6.10;;;3.30;;
53525;SDS011;40551;50.478;19.378;2023-07-13T15:31:22;7.50;;;3.20;;
53525;SDS011;40551;50.478;19.378;2023-07-13T15:34:00;5.90;;;2.70;;